createdAt,value
2023-04-29T00:03:57.370Z,12.40
2023-04-29T00:08:02.159Z,12.40
2023-04-29T00:12:07.448Z,12.40
2023-04-29T00:16:12.059Z,12.40
2023-04-29T00:20:15.606Z,12.40
2023-04-29T00:24:19.996Z,12.50
2023-04-29T00:28:24.268Z,12.50
2023-04-29T00:32:29.618Z,12.50
2023-04-29T00:36:34.134Z,12.50
2023-04-29T00:40:43.706Z,12.50
2023-04-29T00:44:47.029Z,12.50
2023-04-29T00:48:50.936Z,12.60
2023-04-29T00:52:53.984Z,12.50
2023-04-29T00:56:59.732Z,12.50
2023-04-29T01:01:03.969Z,12.60
2023-04-29T01:05:11.559Z,12.60
2023-04-29T01:09:35.214Z,12.60
2023-04-29T01:13:46.222Z,12.60
2023-04-29T01:17:55.891Z,12.60
2023-04-29T01:22:03.681Z,12.60
2023-04-29T01:26:11.434Z,12.50
2023-04-29T01:30:26.944Z,12.50
2023-04-29T01:34:40.708Z,12.60
2023-04-29T01:38:50.474Z,12.60
2023-04-29T01:43:03.349Z,12.60
2023-04-29T01:47:07.391Z,12.60
2023-04-29T01:51:13.599Z,12.60
2023-04-29T01:55:16.696Z,12.60
2023-04-29T01:59:21.302Z,12.60
2023-04-29T02:03:24.568Z,12.60
2023-04-29T02:07:29.938Z,12.60
2023-04-29T02:11:33.116Z,12.50
2023-04-29T02:15:42.659Z,12.60
2023-04-29T02:19:45.765Z,12.70
2023-04-29T02:23:50.525Z,12.80
2023-04-29T02:27:55.222Z,12.80
2023-04-29T02:32:00.197Z,12.80
2023-04-29T02:36:08.211Z,12.90
2023-04-29T02:40:11.823Z,12.90
2023-04-29T02:44:16.121Z,12.90
2023-04-29T02:48:20.647Z,13.00
2023-04-29T02:52:26.445Z,12.90
2023-04-29T02:56:29.544Z,12.90
2023-04-29T03:00:33.177Z,12.90
2023-04-29T03:04:37.581Z,13.00
2023-04-29T03:08:40.594Z,13.00
2023-04-29T03:12:43.623Z,13.10
2023-04-29T03:16:46.701Z,12.90
2023-04-29T03:20:51.389Z,13.00
2023-04-29T03:24:57.262Z,12.90
2023-04-29T03:29:00.533Z,12.90
2023-04-29T03:33:04.326Z,12.90
2023-04-29T03:37:11.140Z,12.90
2023-04-29T03:41:14.253Z,12.80
2023-04-29T03:45:18.987Z,12.80
2023-04-29T03:49:23.039Z,12.90
2023-04-29T03:53:27.553Z,12.90
2023-04-29T03:57:34.789Z,12.90
2023-04-29T04:01:37.907Z,12.80
2023-04-29T04:05:47.698Z,12.70
2023-04-29T04:09:53.126Z,12.60
2023-04-29T04:13:56.389Z,12.60
2023-04-29T04:18:03.194Z,12.60
2023-04-29T04:22:07.842Z,12.50
2023-04-29T04:26:12.448Z,12.40
2023-04-29T04:30:19.353Z,12.30
2023-04-29T04:34:22.618Z,12.30
2023-04-29T04:38:26.542Z,12.30
2023-04-29T04:42:33.671Z,12.20
2023-04-29T04:46:36.980Z,12.20
2023-04-29T04:50:40.505Z,12.30
2023-04-29T04:54:47.652Z,12.30
2023-04-29T04:58:52.408Z,12.50
2023-04-29T05:02:55.611Z,12.70
2023-04-29T05:06:58.785Z,12.90
2023-04-29T05:11:01.920Z,13.10
2023-04-29T05:15:07.033Z,13.10
2023-04-29T05:19:10.040Z,13.20
2023-04-29T05:23:14.976Z,13.40
2023-04-29T05:27:22.100Z,13.60
2023-04-29T05:31:29.717Z,13.80
2023-04-29T05:35:33.834Z,13.70
2023-04-29T05:39:36.797Z,13.70
2023-04-29T05:43:41.834Z,13.80
2023-04-29T05:47:46.624Z,13.90
2023-04-29T05:51:52.499Z,14.10
2023-04-29T05:55:55.544Z,14.40
2023-04-29T06:00:01.720Z,14.90
2023-04-29T06:04:09.405Z,14.90
2023-04-29T06:08:12.609Z,14.90
2023-04-29T06:12:16.066Z,14.90
2023-04-29T06:16:28.028Z,14.90
2023-04-29T06:20:34.440Z,15.10
2023-04-29T06:24:40.309Z,15.30
2023-04-29T06:28:43.383Z,15.20
2023-04-29T06:32:46.741Z,15.30
2023-04-29T06:36:51.505Z,15.40
2023-04-29T06:40:57.890Z,15.70
2023-04-29T06:45:01.078Z,15.80
2023-04-29T06:49:04.114Z,16.10
2023-04-29T06:53:16.575Z,16.30
2023-04-29T06:57:20.820Z,16.50
2023-04-29T07:01:23.893Z,16.70
2023-04-29T07:05:31.374Z,17.00
2023-04-29T07:09:40.551Z,17.30
2023-04-29T07:13:46.758Z,17.00
2023-04-29T07:17:49.879Z,17.10
2023-04-29T07:21:52.862Z,17.60
2023-04-29T07:25:57.627Z,18.30
2023-04-29T07:30:06.139Z,19.30
2023-04-29T07:34:11.040Z,19.80
2023-04-29T07:38:14.091Z,19.60
2023-04-29T07:42:21.524Z,19.30
2023-04-29T07:46:28.546Z,18.60
2023-04-29T07:50:31.665Z,18.30
2023-04-29T07:54:34.716Z,18.60
2023-04-29T07:58:40.279Z,19.20
2023-04-29T08:02:48.408Z,20.00
2023-04-29T08:06:52.110Z,20.40
2023-04-29T08:10:57.954Z,20.40
2023-04-29T08:15:02.502Z,20.10
2023-04-29T08:19:05.513Z,19.60
2023-04-29T08:23:10.628Z,19.60
2023-04-29T08:27:18.763Z,20.00
2023-04-29T08:31:25.397Z,19.90
2023-04-29T08:35:37.852Z,19.70
2023-04-29T08:39:40.955Z,19.60
2023-04-29T08:43:47.166Z,19.10
2023-04-29T08:47:52.566Z,18.70
2023-04-29T08:51:55.741Z,18.30
2023-04-29T08:56:05.032Z,18.20
2023-04-29T09:00:10.606Z,17.90
2023-04-29T09:04:25.433Z,17.80
2023-04-29T09:08:29.153Z,18.60
2023-04-29T09:12:36.176Z,19.30
2023-04-29T09:16:42.056Z,20.50
2023-04-29T09:20:48.385Z,20.80
2023-04-29T09:24:51.787Z,20.60
2023-04-29T09:29:09.493Z,20.10
2023-04-29T09:33:14.169Z,19.80
2023-04-29T09:37:28.277Z,19.60
2023-04-29T09:41:33.186Z,19.60
2023-04-29T09:45:36.901Z,19.60
2023-04-29T09:49:42.548Z,19.50
2023-04-29T09:53:47.116Z,19.30
2023-04-29T09:57:55.716Z,19.00
2023-04-29T10:01:59.820Z,18.70
2023-04-29T10:06:04.853Z,18.50
2023-04-29T10:10:12.678Z,18.40
2023-04-29T10:14:20.428Z,18.10
2023-04-29T10:18:33.780Z,17.70
2023-04-29T10:22:49.130Z,17.40
2023-04-29T10:26:56.506Z,17.50
2023-04-29T10:31:05.246Z,17.80
2023-04-29T10:35:10.344Z,18.30
2023-04-29T10:39:23.128Z,19.10
2023-04-29T10:43:31.029Z,20.40
2023-04-29T10:47:36.033Z,21.40
2023-04-29T10:51:47.175Z,21.30
2023-04-29T10:55:56.053Z,20.80
2023-04-29T11:00:00.684Z,20.10
2023-04-29T11:04:07.866Z,19.60
2023-04-29T11:08:14.017Z,19.00
2023-04-29T11:12:21.858Z,19.30
2023-04-29T11:16:29.386Z,19.70
2023-04-29T11:20:32.883Z,20.10
2023-04-29T11:24:36.647Z,20.20
2023-04-29T11:28:43.208Z,20.10
2023-04-29T11:32:54.531Z,19.80
2023-04-29T11:37:00.134Z,19.40
2023-04-29T11:41:03.277Z,19.10
2023-04-29T11:45:13.053Z,18.80
2023-04-29T11:49:23.024Z,18.60
2023-04-29T11:53:30.282Z,18.50
2023-04-29T11:57:35.358Z,18.60
2023-04-29T12:01:39.573Z,18.40
2023-04-29T12:05:53.037Z,18.40
2023-04-29T12:10:00.327Z,18.80
2023-04-29T12:14:06.248Z,19.10
2023-04-29T12:18:09.972Z,19.30
2023-04-29T12:22:14.670Z,19.20
2023-04-29T12:26:21.241Z,18.90
2023-04-29T12:30:27.515Z,18.90
2023-04-29T12:34:34.958Z,19.10
2023-04-29T12:38:54.756Z,19.20
2023-04-29T12:43:02.051Z,19.60
2023-04-29T12:47:09.986Z,19.70
2023-04-29T12:51:14.561Z,19.20
2023-04-29T12:55:19.416Z,18.80
2023-04-29T12:59:22.572Z,18.70
2023-04-29T13:03:28.032Z,18.70
2023-04-29T13:07:38.228Z,18.60
2023-04-29T13:11:45.892Z,18.60
2023-04-29T13:15:51.575Z,18.60
2023-04-29T13:19:54.780Z,18.70
2023-04-29T13:23:57.754Z,18.70
2023-04-29T13:28:02.327Z,18.90
2023-04-29T13:32:09.402Z,19.10
2023-04-29T13:36:12.770Z,19.40
2023-04-29T13:40:21.009Z,19.30
2023-04-29T13:44:47.044Z,19.10
2023-04-29T13:53:40.983Z,19.00
2023-04-29T14:05:51.735Z,18.60
2023-04-29T14:09:55.863Z,18.70
2023-04-29T14:13:58.993Z,18.80
2023-04-29T14:18:03.637Z,19.00
2023-04-29T14:22:06.655Z,19.20
2023-04-29T14:26:27.249Z,19.30
2023-04-29T14:30:31.352Z,19.30
2023-04-29T14:34:35.725Z,19.50
2023-04-29T14:38:40.343Z,19.60
2023-04-29T14:42:49.202Z,19.70
2023-04-29T14:46:55.184Z,20.00
2023-04-29T14:50:59.593Z,20.00
2023-04-29T14:55:03.959Z,19.70
2023-04-29T14:59:08.947Z,19.60
2023-04-29T15:03:20.147Z,19.60
2023-04-29T15:07:26.938Z,19.40
2023-04-29T15:11:30.172Z,19.30
2023-04-29T15:15:33.256Z,19.10
2023-04-29T15:19:36.710Z,19.00
2023-04-29T15:23:41.293Z,18.70
2023-04-29T15:27:47.394Z,18.60
2023-04-29T15:31:52.475Z,18.50
2023-04-29T15:36:02.547Z,18.40
2023-04-29T15:40:11.307Z,18.40
2023-04-29T15:44:14.328Z,18.40
2023-04-29T15:48:22.213Z,18.20
2023-04-29T15:52:25.475Z,18.10
2023-04-29T15:56:31.184Z,17.90
2023-04-29T16:00:34.300Z,17.60
2023-04-29T16:04:39.575Z,17.60
2023-04-29T16:08:46.268Z,17.50
2023-04-29T16:12:51.128Z,17.40
2023-04-29T16:16:55.338Z,17.30
2023-04-29T16:20:58.596Z,17.30
2023-04-29T16:25:02.511Z,17.30
2023-04-29T16:29:09.978Z,17.20
2023-04-29T16:33:17.988Z,17.10
2023-04-29T16:37:24.950Z,17.00
2023-04-29T16:41:33.661Z,17.00
2023-04-29T16:45:43.087Z,16.90
2023-04-29T16:49:50.678Z,16.90
2023-04-29T16:53:55.314Z,16.90
2023-04-29T16:57:59.687Z,16.80
2023-04-29T17:02:07.854Z,16.80
2023-04-29T17:06:12.290Z,16.70
2023-04-29T17:10:15.349Z,16.60
2023-04-29T17:14:18.440Z,16.50
2023-04-29T17:18:26.262Z,16.40
2023-04-29T17:22:30.948Z,16.20
2023-04-29T17:26:34.020Z,15.90
2023-04-29T17:30:39.252Z,15.80
2023-04-29T17:34:47.474Z,15.80
2023-04-29T17:38:52.107Z,15.80
2023-04-29T17:42:58.141Z,15.70
2023-04-29T17:47:04.283Z,15.70
2023-04-29T17:51:08.776Z,15.60
2023-04-29T17:55:11.901Z,15.50
2023-04-29T17:59:17.371Z,15.40
2023-04-29T18:03:20.736Z,15.30
2023-04-29T18:07:25.333Z,15.20
2023-04-29T18:11:28.439Z,15.10
2023-04-29T18:15:31.500Z,15.00
2023-04-29T18:19:34.824Z,14.80
2023-04-29T18:23:41.257Z,14.70
2023-04-29T18:27:46.386Z,14.50
2023-04-29T18:31:49.597Z,14.40
2023-04-29T18:36:00.628Z,14.20
2023-04-29T18:40:10.979Z,14.00
2023-04-29T18:44:14.457Z,13.90
2023-04-29T18:48:21.406Z,13.80
2023-04-29T18:52:27.839Z,13.70
2023-04-29T18:56:33.886Z,13.70
2023-04-29T19:00:37.093Z,13.70
2023-04-29T19:04:42.066Z,13.80
2023-04-29T19:08:45.482Z,13.80
2023-04-29T19:12:50.085Z,13.70
2023-04-29T19:16:55.159Z,13.70
2023-04-29T19:20:58.654Z,13.80
2023-04-29T19:25:01.900Z,13.80
2023-04-29T19:29:07.326Z,13.80
2023-04-29T19:33:20.817Z,13.90
2023-04-29T19:37:23.951Z,13.90
2023-04-29T19:41:28.506Z,13.90
2023-04-29T19:45:35.856Z,13.90
2023-04-29T19:49:39.299Z,13.80
2023-04-29T19:53:42.910Z,13.80
2023-04-29T19:57:46.263Z,13.80
2023-04-29T20:01:52.531Z,13.80
2023-04-29T20:05:57.185Z,13.70
2023-04-29T20:10:00.482Z,13.70
2023-04-29T20:14:03.814Z,13.60
2023-04-29T20:18:10.304Z,13.50
2023-04-29T20:22:13.698Z,13.40
2023-04-29T20:26:17.880Z,13.40
2023-04-29T20:30:23.183Z,13.30
2023-04-29T20:34:27.914Z,13.30
2023-04-29T20:38:37.322Z,13.20
2023-04-29T20:42:43.411Z,13.20
2023-04-29T20:46:47.666Z,13.20
2023-04-29T20:50:52.215Z,13.10
2023-04-29T20:54:55.292Z,13.10
2023-04-29T20:59:00.570Z,13.10
2023-04-29T21:03:03.883Z,13.00
2023-04-29T21:07:12.120Z,13.00
2023-04-29T21:11:19.293Z,13.00
2023-04-29T21:15:22.412Z,12.90
2023-04-29T21:19:25.719Z,12.90
2023-04-29T21:23:31.213Z,12.80
2023-04-29T21:27:35.825Z,12.80
2023-04-29T21:31:43.075Z,12.80
2023-04-29T21:35:52.284Z,12.80
2023-04-29T21:40:00.475Z,12.80
2023-04-29T21:44:04.448Z,12.70
2023-04-29T21:48:15.278Z,12.70
2023-04-29T21:52:23.061Z,12.70
2023-04-29T21:56:27.460Z,12.70
2023-04-29T22:00:33.429Z,12.60
2023-04-29T22:04:36.911Z,12.60
2023-04-29T22:08:39.933Z,12.60
2023-04-29T22:12:44.339Z,12.50
2023-04-29T22:16:50.230Z,12.50
2023-04-29T22:20:53.738Z,12.40
2023-04-29T22:24:56.985Z,12.50
2023-04-29T22:29:01.479Z,12.40
2023-04-29T22:33:04.821Z,12.40
2023-04-29T22:37:13.168Z,12.40
2023-04-29T22:41:18.372Z,12.30
2023-04-29T22:45:22.892Z,12.30
2023-04-29T22:49:27.515Z,12.30
2023-04-29T22:53:30.561Z,12.30
2023-04-29T22:57:37.270Z,12.30
2023-04-29T23:01:44.227Z,12.30
2023-04-29T23:05:48.462Z,12.20
2023-04-29T23:09:52.403Z,12.20
2023-04-29T23:13:58.054Z,12.20
2023-04-29T23:18:02.840Z,12.20
2023-04-29T23:22:07.382Z,12.10
2023-04-29T23:26:10.404Z,12.10
2023-04-29T23:30:13.640Z,12.10
2023-04-29T23:34:18.479Z,12.10
2023-04-29T23:38:24.473Z,12.10
2023-04-29T23:42:27.884Z,12.10
2023-04-29T23:46:32.838Z,12.10
2023-04-29T23:50:41.969Z,12.00
2023-04-29T23:54:50.562Z,12.00
2023-04-29T23:58:56.303Z,12.00
